sensor_id;sensor_type;location;lat;lon;timestamp;P1;durP1;ratioP1;P2;durP2;ratioP2
21128;SDS011;10722;51.910;8.352;2024-01-25T00:00:55;41.67;;;6.30;;
21128;SDS011;10722;51.910;8.352;2024-01-25T00:03:40;33.73;;;6.03;;
21128;SDS011;10722;51.910;8.352;2024-01-25T00:06:26;35.93;;;6.33;;
21128;SDS011;10722;51.910;8.352;2024-01-25T00:09:11;37.60;;;6.03;;
21128;SDS011;10722;51.910;8.352;2024-01-25T00:11:56;35.93;;;5.63;;
21128;SDS011;10722;51.910;8.352;2024-01-25T00:14:41;34.77;;;6.70;;
21128;SDS011;10722;51.910;8.352;2024-01-25T00:17:26;41.10;;;6.10;;
21128;SDS011;10722;51.910;8.352;2024-01-25T00:20:11;33.10;;;5.83;;
21128;SDS011;10722;51.910;8.352;2024-01-25T00:22:57;30.10;;;5.57;;
21128;SDS011;10722;51.910;8.352;2024-01-25T00:25:41;38.23;;;6.07;;
21128;SDS011;10722;51.910;8.352;2024-01-25T00:28:26;38.97;;;6.37;;
21128;SDS011;10722;51.910;8.352;2024-01-25T00:31:11;34.47;;;6.10;;
21128;SDS011;10722;51.910;8.352;2024-01-25T00:33:57;39.27;;;6.30;;
21128;SDS011;10722;51.910;8.352;2024-01-25T00:36:42;38.17;;;7.03;;
21128;SDS011;10722;51.910;8.352;2024-01-25T00:39:28;37.27;;;5.73;;
21128;SDS011;10722;51.910;8.352;2024-01-25T00:42:13;36.63;;;5.47;;
21128;SDS011;10722;51.910;8.352;2024-01-25T00:44:59;39.90;;;6.30;;
21128;SDS011;10722;51.910;8.352;2024-01-25T00:47:44;33.77;;;6.57;;
21128;SDS011;10722;51.910;8.352;2024-01-25T00:50:30;32.63;;;5.70;;
21128;SDS011;10722;51.910;8.352;2024-01-25T00:53:15;41.13;;;6.53;;
21128;SDS011;10722;51.910;8.352;2024-01-25T00:56:00;37.20;;;5.97;;
21128;SDS011;10722;51.910;8.352;2024-01-25T00:58:46;36.83;;;6.60;;
21128;SDS011;10722;51.910;8.352;2024-01-25T01:01:31;41.20;;;6.53;;
21128;SDS011;10722;51.910;8.352;2024-01-25T01:04:17;39.03;;;6.53;;
21128;SDS011;10722;51.910;8.352;2024-01-25T01:07:04;38.23;;;7.10;;
21128;SDS011;10722;51.910;8.352;2024-01-25T01:09:49;39.93;;;6.47;;
21128;SDS011;10722;51.910;8.352;2024-01-25T01:12:35;31.17;;;6.23;;
21128;SDS011;10722;51.910;8.352;2024-01-25T01:15:20;37.43;;;6.20;;
21128;SDS011;10722;51.910;8.352;2024-01-25T01:18:05;37.87;;;6.47;;
21128;SDS011;10722;51.910;8.352;2024-01-25T01:20:51;40.43;;;6.77;;
21128;SDS011;10722;51.910;8.352;2024-01-25T01:23:35;42.43;;;7.23;;
21128;SDS011;10722;51.910;8.352;2024-01-25T01:26:20;41.17;;;6.53;;
21128;SDS011;10722;51.910;8.352;2024-01-25T01:29:05;34.87;;;6.10;;
21128;SDS011;10722;51.910;8.352;2024-01-25T01:31:50;36.27;;;6.27;;
21128;SDS011;10722;51.910;8.352;2024-01-25T01:34:36;41.97;;;6.17;;
21128;SDS011;10722;51.910;8.352;2024-01-25T01:37:21;36.97;;;6.40;;
21128;SDS011;10722;51.910;8.352;2024-01-25T01:40:06;43.20;;;6.47;;
21128;SDS011;10722;51.910;8.352;2024-01-25T01:42:52;37.17;;;6.63;;
21128;SDS011;10722;51.910;8.352;2024-01-25T01:45:44;39.03;;;6.33;;
21128;SDS011;10722;51.910;8.352;2024-01-25T01:48:30;33.63;;;6.43;;
21128;SDS011;10722;51.910;8.352;2024-01-25T01:51:16;40.13;;;6.80;;
21128;SDS011;10722;51.910;8.352;2024-01-25T01:54:02;37.47;;;6.67;;
21128;SDS011;10722;51.910;8.352;2024-01-25T01:56:50;44.97;;;6.80;;
21128;SDS011;10722;51.910;8.352;2024-01-25T01:59:36;40.87;;;7.10;;
21128;SDS011;10722;51.910;8.352;2024-01-25T02:02:21;38.53;;;6.57;;
21128;SDS011;10722;51.910;8.352;2024-01-25T02:05:06;41.70;;;6.97;;
21128;SDS011;10722;51.910;8.352;2024-01-25T02:07:51;40.70;;;6.73;;
21128;SDS011;10722;51.910;8.352;2024-01-25T02:10:36;36.43;;;6.43;;
21128;SDS011;10722;51.910;8.352;2024-01-25T02:13:21;41.87;;;6.97;;
21128;SDS011;10722;51.910;8.352;2024-01-25T02:16:07;45.03;;;6.67;;
21128;SDS011;10722;51.910;8.352;2024-01-25T02:18:52;38.10;;;5.90;;
21128;SDS011;10722;51.910;8.352;2024-01-25T02:21:38;38.27;;;6.80;;
21128;SDS011;10722;51.910;8.352;2024-01-25T02:24:23;39.20;;;6.23;;
21128;SDS011;10722;51.910;8.352;2024-01-25T02:27:08;35.90;;;6.30;;
21128;SDS011;10722;51.910;8.352;2024-01-25T02:29:54;44.73;;;7.33;;
21128;SDS011;10722;51.910;8.352;2024-01-25T02:32:39;41.97;;;6.67;;
21128;SDS011;10722;51.910;8.352;2024-01-25T02:35:24;36.73;;;5.73;;
21128;SDS011;10722;51.910;8.352;2024-01-25T02:38:08;43.03;;;7.33;;
21128;SDS011;10722;51.910;8.352;2024-01-25T02:40:53;40.37;;;6.27;;
21128;SDS011;10722;51.910;8.352;2024-01-25T02:43:39;39.77;;;7.07;;
21128;SDS011;10722;51.910;8.352;2024-01-25T02:46:24;42.10;;;7.53;;
21128;SDS011;10722;51.910;8.352;2024-01-25T02:49:09;40.47;;;6.53;;
21128;SDS011;10722;51.910;8.352;2024-01-25T02:51:54;39.93;;;6.67;;
21128;SDS011;10722;51.910;8.352;2024-01-25T02:54:39;41.33;;;6.30;;
21128;SDS011;10722;51.910;8.352;2024-01-25T02:57:24;34.67;;;6.40;;
21128;SDS011;10722;51.910;8.352;2024-01-25T03:00:10;37.50;;;6.63;;
21128;SDS011;10722;51.910;8.352;2024-01-25T03:02:56;37.10;;;7.17;;
21128;SDS011;10722;51.910;8.352;2024-01-25T03:05:40;36.73;;;6.07;;
21128;SDS011;10722;51.910;8.352;2024-01-25T03:08:26;36.03;;;6.17;;
21128;SDS011;10722;51.910;8.352;2024-01-25T03:11:11;40.73;;;6.93;;
21128;SDS011;10722;51.910;8.352;2024-01-25T03:13:56;36.23;;;6.67;;
21128;SDS011;10722;51.910;8.352;2024-01-25T03:16:41;39.63;;;6.40;;
21128;SDS011;10722;51.910;8.352;2024-01-25T03:19:27;34.50;;;6.03;;
21128;SDS011;10722;51.910;8.352;2024-01-25T03:22:13;42.57;;;7.00;;
21128;SDS011;10722;51.910;8.352;2024-01-25T03:24:58;39.63;;;6.63;;
21128;SDS011;10722;51.910;8.352;2024-01-25T03:27:44;38.90;;;6.33;;
21128;SDS011;10722;51.910;8.352;2024-01-25T03:30:29;36.83;;;6.10;;
21128;SDS011;10722;51.910;8.352;2024-01-25T03:33:14;40.37;;;6.90;;
21128;SDS011;10722;51.910;8.352;2024-01-25T03:36:03;35.07;;;6.40;;
21128;SDS011;10722;51.910;8.352;2024-01-25T03:38:48;39.77;;;6.47;;
21128;SDS011;10722;51.910;8.352;2024-01-25T03:41:34;39.70;;;6.30;;
21128;SDS011;10722;51.910;8.352;2024-01-25T03:44:19;37.50;;;5.83;;
21128;SDS011;10722;51.910;8.352;2024-01-25T03:47:05;43.17;;;6.67;;
21128;SDS011;10722;51.910;8.352;2024-01-25T03:49:50;40.47;;;6.60;;
21128;SDS011;10722;51.910;8.352;2024-01-25T03:52:35;41.73;;;6.57;;
21128;SDS011;10722;51.910;8.352;2024-01-25T03:55:20;40.80;;;6.00;;
21128;SDS011;10722;51.910;8.352;2024-01-25T03:58:06;42.13;;;7.20;;
21128;SDS011;10722;51.910;8.352;2024-01-25T04:00:51;44.57;;;6.50;;
21128;SDS011;10722;51.910;8.352;2024-01-25T04:03:36;37.20;;;6.13;;
21128;SDS011;10722;51.910;8.352;2024-01-25T04:06:22;38.07;;;6.20;;
21128;SDS011;10722;51.910;8.352;2024-01-25T04:09:07;43.57;;;6.37;;
21128;SDS011;10722;51.910;8.352;2024-01-25T04:11:52;44.00;;;7.20;;
21128;SDS011;10722;51.910;8.352;2024-01-25T04:14:37;33.47;;;5.83;;
21128;SDS011;10722;51.910;8.352;2024-01-25T04:17:22;34.30;;;6.10;;
21128;SDS011;10722;51.910;8.352;2024-01-25T04:20:07;46.40;;;6.83;;
21128;SDS011;10722;51.910;8.352;2024-01-25T04:22:53;38.97;;;7.03;;
21128;SDS011;10722;51.910;8.352;2024-01-25T04:25:38;44.43;;;6.63;;
21128;SDS011;10722;51.910;8.352;2024-01-25T04:28:23;41.57;;;6.23;;
21128;SDS011;10722;51.910;8.352;2024-01-25T04:31:09;38.27;;;6.70;;
21128;SDS011;10722;51.910;8.352;2024-01-25T04:33:54;45.10;;;6.00;;
21128;SDS011;10722;51.910;8.352;2024-01-25T04:36:39;43.10;;;6.83;;
21128;SDS011;10722;51.910;8.352;2024-01-25T04:39:24;36.50;;;6.67;;
21128;SDS011;10722;51.910;8.352;2024-01-25T04:42:09;36.07;;;5.80;;
21128;SDS011;10722;51.910;8.352;2024-01-25T04:44:54;36.70;;;6.47;;
21128;SDS011;10722;51.910;8.352;2024-01-25T04:47:39;41.77;;;6.37;;
21128;SDS011;10722;51.910;8.352;2024-01-25T04:50:24;37.13;;;6.90;;
21128;SDS011;10722;51.910;8.352;2024-01-25T04:53:09;41.50;;;6.93;;
21128;SDS011;10722;51.910;8.352;2024-01-25T04:55:54;35.87;;;6.27;;
21128;SDS011;10722;51.910;8.352;2024-01-25T04:58:40;37.13;;;6.00;;
21128;SDS011;10722;51.910;8.352;2024-01-25T05:01:25;37.20;;;6.73;;
21128;SDS011;10722;51.910;8.352;2024-01-25T05:04:10;42.43;;;6.47;;
21128;SDS011;10722;51.910;8.352;2024-01-25T05:06:56;46.10;;;6.73;;
21128;SDS011;10722;51.910;8.352;2024-01-25T05:09:41;43.77;;;6.97;;
21128;SDS011;10722;51.910;8.352;2024-01-25T05:12:26;45.33;;;7.03;;
21128;SDS011;10722;51.910;8.352;2024-01-25T05:15:11;43.17;;;6.60;;
21128;SDS011;10722;51.910;8.352;2024-01-25T05:17:56;35.30;;;6.17;;
21128;SDS011;10722;51.910;8.352;2024-01-25T05:20:42;38.87;;;6.60;;
21128;SDS011;10722;51.910;8.352;2024-01-25T05:23:27;46.60;;;6.90;;
21128;SDS011;10722;51.910;8.352;2024-01-25T05:26:12;44.60;;;7.57;;
21128;SDS011;10722;51.910;8.352;2024-01-25T05:28:58;43.87;;;7.00;;
21128;SDS011;10722;51.910;8.352;2024-01-25T05:31:43;44.03;;;7.37;;
21128;SDS011;10722;51.910;8.352;2024-01-25T05:34:28;45.13;;;6.90;;
21128;SDS011;10722;51.910;8.352;2024-01-25T05:37:13;46.87;;;8.33;;
21128;SDS011;10722;51.910;8.352;2024-01-25T05:39:58;47.27;;;7.30;;
21128;SDS011;10722;51.910;8.352;2024-01-25T05:42:43;41.47;;;7.23;;
21128;SDS011;10722;51.910;8.352;2024-01-25T05:45:28;39.40;;;6.77;;
21128;SDS011;10722;51.910;8.352;2024-01-25T05:48:13;48.67;;;6.83;;
21128;SDS011;10722;51.910;8.352;2024-01-25T05:50:58;47.07;;;6.60;;
21128;SDS011;10722;51.910;8.352;2024-01-25T05:53:43;44.47;;;6.77;;
21128;SDS011;10722;51.910;8.352;2024-01-25T05:56:28;38.93;;;6.83;;
21128;SDS011;10722;51.910;8.352;2024-01-25T05:59:12;43.80;;;7.27;;
21128;SDS011;10722;51.910;8.352;2024-01-25T06:01:58;48.53;;;7.23;;
21128;SDS011;10722;51.910;8.352;2024-01-25T06:04:43;46.47;;;7.10;;
21128;SDS011;10722;51.910;8.352;2024-01-25T06:07:28;43.07;;;7.33;;
21128;SDS011;10722;51.910;8.352;2024-01-25T06:10:14;41.50;;;7.43;;
21128;SDS011;10722;51.910;8.352;2024-01-25T06:12:59;46.43;;;7.03;;
21128;SDS011;10722;51.910;8.352;2024-01-25T06:15:44;46.70;;;7.63;;
21128;SDS011;10722;51.910;8.352;2024-01-25T06:18:30;58.30;;;7.47;;
21128;SDS011;10722;51.910;8.352;2024-01-25T06:21:15;47.53;;;7.63;;
21128;SDS011;10722;51.910;8.352;2024-01-25T06:24:00;47.30;;;7.07;;
21128;SDS011;10722;51.910;8.352;2024-01-25T06:26:45;41.83;;;7.20;;
21128;SDS011;10722;51.910;8.352;2024-01-25T06:29:30;39.97;;;7.63;;
21128;SDS011;10722;51.910;8.352;2024-01-25T06:32:15;46.63;;;7.23;;
21128;SDS011;10722;51.910;8.352;2024-01-25T06:35:10;45.47;;;7.13;;
21128;SDS011;10722;51.910;8.352;2024-01-25T06:37:56;42.47;;;6.50;;
21128;SDS011;10722;51.910;8.352;2024-01-25T06:40:41;42.67;;;7.10;;
21128;SDS011;10722;51.910;8.352;2024-01-25T06:43:26;42.60;;;7.57;;
21128;SDS011;10722;51.910;8.352;2024-01-25T06:46:11;52.70;;;7.73;;
21128;SDS011;10722;51.910;8.352;2024-01-25T06:48:56;55.67;;;8.10;;
21128;SDS011;10722;51.910;8.352;2024-01-25T06:51:41;39.90;;;7.07;;
21128;SDS011;10722;51.910;8.352;2024-01-25T06:54:26;49.63;;;7.03;;
21128;SDS011;10722;51.910;8.352;2024-01-25T06:57:11;49.73;;;7.93;;
21128;SDS011;10722;51.910;8.352;2024-01-25T06:59:56;47.63;;;7.73;;
21128;SDS011;10722;51.910;8.352;2024-01-25T07:02:42;47.83;;;7.03;;
21128;SDS011;10722;51.910;8.352;2024-01-25T07:05:27;38.17;;;6.87;;
21128;SDS011;10722;51.910;8.352;2024-01-25T07:08:12;45.77;;;7.57;;
21128;SDS011;10722;51.910;8.352;2024-01-25T07:10:57;50.37;;;7.77;;
21128;SDS011;10722;51.910;8.352;2024-01-25T07:13:42;45.20;;;8.53;;
21128;SDS011;10722;51.910;8.352;2024-01-25T07:16:27;47.23;;;7.97;;
21128;SDS011;10722;51.910;8.352;2024-01-25T07:19:13;47.57;;;7.87;;
21128;SDS011;10722;51.910;8.352;2024-01-25T07:21:58;63.23;;;8.40;;
21128;SDS011;10722;51.910;8.352;2024-01-25T07:24:44;45.43;;;7.90;;
21128;SDS011;10722;51.910;8.352;2024-01-25T07:27:29;42.60;;;8.10;;
21128;SDS011;10722;51.910;8.352;2024-01-25T07:30:14;44.40;;;8.33;;
21128;SDS011;10722;51.910;8.352;2024-01-25T07:32:59;46.87;;;7.47;;
21128;SDS011;10722;51.910;8.352;2024-01-25T07:35:44;51.67;;;8.13;;
21128;SDS011;10722;51.910;8.352;2024-01-25T07:38:29;44.77;;;7.80;;
21128;SDS011;10722;51.910;8.352;2024-01-25T07:41:14;51.93;;;8.50;;
21128;SDS011;10722;51.910;8.352;2024-01-25T07:44:00;56.50;;;8.90;;
21128;SDS011;10722;51.910;8.352;2024-01-25T07:46:44;51.23;;;8.20;;
21128;SDS011;10722;51.910;8.352;2024-01-25T07:49:30;53.50;;;8.73;;
21128;SDS011;10722;51.910;8.352;2024-01-25T07:52:15;51.80;;;8.00;;
21128;SDS011;10722;51.910;8.352;2024-01-25T07:55:00;51.10;;;8.27;;
21128;SDS011;10722;51.910;8.352;2024-01-25T07:57:48;55.80;;;8.10;;
21128;SDS011;10722;51.910;8.352;2024-01-25T08:00:33;43.43;;;7.77;;
21128;SDS011;10722;51.910;8.352;2024-01-25T08:03:19;47.87;;;7.80;;
21128;SDS011;10722;51.910;8.352;2024-01-25T08:06:04;48.30;;;7.83;;
21128;SDS011;10722;51.910;8.352;2024-01-25T08:08:49;54.03;;;8.37;;
21128;SDS011;10722;51.910;8.352;2024-01-25T08:11:34;47.43;;;7.90;;
21128;SDS011;10722;51.910;8.352;2024-01-25T08:14:19;60.33;;;7.73;;
21128;SDS011;10722;51.910;8.352;2024-01-25T08:17:04;49.50;;;7.63;;
21128;SDS011;10722;51.910;8.352;2024-01-25T08:19:49;46.20;;;7.93;;
21128;SDS011;10722;51.910;8.352;2024-01-25T08:22:36;43.47;;;8.57;;
21128;SDS011;10722;51.910;8.352;2024-01-25T08:25:22;56.30;;;9.10;;
21128;SDS011;10722;51.910;8.352;2024-01-25T08:28:07;52.00;;;7.83;;
21128;SDS011;10722;51.910;8.352;2024-01-25T08:30:52;55.33;;;8.27;;
21128;SDS011;10722;51.910;8.352;2024-01-25T08:33:38;45.63;;;8.17;;
21128;SDS011;10722;51.910;8.352;2024-01-25T08:36:24;46.37;;;8.93;;
21128;SDS011;10722;51.910;8.352;2024-01-25T08:39:09;44.43;;;8.03;;
21128;SDS011;10722;51.910;8.352;2024-01-25T08:41:54;49.20;;;7.53;;
21128;SDS011;10722;51.910;8.352;2024-01-25T08:44:39;50.63;;;7.63;;
21128;SDS011;10722;51.910;8.352;2024-01-25T08:47:24;41.63;;;8.50;;
21128;SDS011;10722;51.910;8.352;2024-01-25T08:50:10;56.40;;;7.83;;
21128;SDS011;10722;51.910;8.352;2024-01-25T08:52:56;43.87;;;8.07;;
21128;SDS011;10722;51.910;8.352;2024-01-25T08:55:41;48.97;;;8.87;;
21128;SDS011;10722;51.910;8.352;2024-01-25T08:58:26;57.57;;;10.03;;
21128;SDS011;10722;51.910;8.352;2024-01-25T09:01:12;49.47;;;8.93;;
21128;SDS011;10722;51.910;8.352;2024-01-25T09:03:57;48.47;;;8.00;;
21128;SDS011;10722;51.910;8.352;2024-01-25T09:06:43;50.17;;;8.67;;
21128;SDS011;10722;51.910;8.352;2024-01-25T09:09:28;52.53;;;9.67;;
21128;SDS011;10722;51.910;8.352;2024-01-25T09:12:13;47.00;;;8.13;;
21128;SDS011;10722;51.910;8.352;2024-01-25T09:14:59;44.10;;;8.23;;
21128;SDS011;10722;51.910;8.352;2024-01-25T09:17:45;52.77;;;8.80;;
21128;SDS011;10722;51.910;8.352;2024-01-25T09:20:30;48.20;;;8.40;;
21128;SDS011;10722;51.910;8.352;2024-01-25T09:23:16;45.20;;;8.37;;
21128;SDS011;10722;51.910;8.352;2024-01-25T09:26:01;43.43;;;8.37;;
21128;SDS011;10722;51.910;8.352;2024-01-25T09:28:47;54.07;;;8.67;;
21128;SDS011;10722;51.910;8.352;2024-01-25T09:31:32;52.10;;;9.00;;
21128;SDS011;10722;51.910;8.352;2024-01-25T09:34:18;48.60;;;8.77;;
21128;SDS011;10722;51.910;8.352;2024-01-25T09:37:04;48.33;;;9.20;;
21128;SDS011;10722;51.910;8.352;2024-01-25T09:39:50;51.53;;;8.27;;
21128;SDS011;10722;51.910;8.352;2024-01-25T09:42:35;49.33;;;9.10;;
21128;SDS011;10722;51.910;8.352;2024-01-25T09:45:21;50.63;;;8.90;;
21128;SDS011;10722;51.910;8.352;2024-01-25T09:48:06;52.30;;;8.63;;
21128;SDS011;10722;51.910;8.352;2024-01-25T09:50:56;52.10;;;9.30;;
21128;SDS011;10722;51.910;8.352;2024-01-25T09:53:43;47.50;;;8.17;;
21128;SDS011;10722;51.910;8.352;2024-01-25T09:56:34;47.90;;;8.87;;
21128;SDS011;10722;51.910;8.352;2024-01-25T09:59:19;51.57;;;8.97;;
21128;SDS011;10722;51.910;8.352;2024-01-25T10:02:05;48.93;;;9.00;;
21128;SDS011;10722;51.910;8.352;2024-01-25T10:04:50;52.83;;;9.40;;
21128;SDS011;10722;51.910;8.352;2024-01-25T10:07:36;55.13;;;9.13;;
21128;SDS011;10722;51.910;8.352;2024-01-25T10:10:26;42.13;;;8.67;;
21128;SDS011;10722;51.910;8.352;2024-01-25T10:13:12;61.80;;;8.70;;
21128;SDS011;10722;51.910;8.352;2024-01-25T10:15:58;50.23;;;9.90;;
21128;SDS011;10722;51.910;8.352;2024-01-25T10:18:45;47.43;;;9.43;;
21128;SDS011;10722;51.910;8.352;2024-01-25T10:21:32;54.63;;;8.97;;
21128;SDS011;10722;51.910;8.352;2024-01-25T10:24:17;54.33;;;9.53;;
21128;SDS011;10722;51.910;8.352;2024-01-25T10:27:03;46.00;;;9.03;;
21128;SDS011;10722;51.910;8.352;2024-01-25T10:29:49;50.20;;;9.23;;
21128;SDS011;10722;51.910;8.352;2024-01-25T10:32:34;45.50;;;9.23;;
21128;SDS011;10722;51.910;8.352;2024-01-25T10:35:20;49.13;;;9.50;;
21128;SDS011;10722;51.910;8.352;2024-01-25T10:38:09;44.80;;;9.30;;
21128;SDS011;10722;51.910;8.352;2024-01-25T10:40:55;49.37;;;9.30;;
21128;SDS011;10722;51.910;8.352;2024-01-25T10:43:41;46.53;;;9.00;;
21128;SDS011;10722;51.910;8.352;2024-01-25T10:46:27;44.97;;;8.87;;
21128;SDS011;10722;51.910;8.352;2024-01-25T10:49:14;42.70;;;8.93;;
21128;SDS011;10722;51.910;8.352;2024-01-25T10:51:59;49.50;;;9.00;;
21128;SDS011;10722;51.910;8.352;2024-01-25T10:54:45;48.33;;;9.77;;
21128;SDS011;10722;51.910;8.352;2024-01-25T10:57:34;45.93;;;9.33;;
21128;SDS011;10722;51.910;8.352;2024-01-25T11:00:21;44.20;;;9.37;;
21128;SDS011;10722;51.910;8.352;2024-01-25T11:03:06;54.07;;;9.97;;
21128;SDS011;10722;51.910;8.352;2024-01-25T11:05:51;46.40;;;8.87;;
21128;SDS011;10722;51.910;8.352;2024-01-25T11:08:39;48.80;;;9.53;;
21128;SDS011;10722;51.910;8.352;2024-01-25T11:11:24;57.97;;;9.93;;
21128;SDS011;10722;51.910;8.352;2024-01-25T11:14:11;45.00;;;9.13;;
21128;SDS011;10722;51.910;8.352;2024-01-25T11:17:14;51.27;;;9.30;;
21128;SDS011;10722;51.910;8.352;2024-01-25T11:20:00;47.30;;;10.03;;
21128;SDS011;10722;51.910;8.352;2024-01-25T11:22:45;52.90;;;10.10;;
21128;SDS011;10722;51.910;8.352;2024-01-25T11:25:31;50.57;;;11.07;;
21128;SDS011;10722;51.910;8.352;2024-01-25T11:28:18;53.33;;;9.73;;
21128;SDS011;10722;51.910;8.352;2024-01-25T11:31:03;50.40;;;10.70;;
21128;SDS011;10722;51.910;8.352;2024-01-25T11:33:48;53.33;;;10.57;;
21128;SDS011;10722;51.910;8.352;2024-01-25T11:36:34;47.80;;;10.00;;
21128;SDS011;10722;51.910;8.352;2024-01-25T11:39:19;49.80;;;9.33;;
21128;SDS011;10722;51.910;8.352;2024-01-25T11:42:04;48.70;;;10.30;;
21128;SDS011;10722;51.910;8.352;2024-01-25T11:44:49;48.50;;;9.97;;
21128;SDS011;10722;51.910;8.352;2024-01-25T11:47:35;50.97;;;10.37;;
21128;SDS011;10722;51.910;8.352;2024-01-25T11:50:20;38.40;;;9.77;;
21128;SDS011;10722;51.910;8.352;2024-01-25T11:53:06;49.47;;;10.50;;
21128;SDS011;10722;51.910;8.352;2024-01-25T11:55:51;48.00;;;10.67;;
21128;SDS011;10722;51.910;8.352;2024-01-25T11:58:39;53.57;;;10.97;;
21128;SDS011;10722;51.910;8.352;2024-01-25T12:01:26;47.87;;;9.97;;
21128;SDS011;10722;51.910;8.352;2024-01-25T12:04:13;52.07;;;10.93;;
21128;SDS011;10722;51.910;8.352;2024-01-25T12:06:59;46.50;;;10.30;;
21128;SDS011;10722;51.910;8.352;2024-01-25T12:09:44;48.07;;;9.50;;
21128;SDS011;10722;51.910;8.352;2024-01-25T12:12:30;49.73;;;11.30;;
21128;SDS011;10722;51.910;8.352;2024-01-25T12:15:15;46.37;;;11.20;;
21128;SDS011;10722;51.910;8.352;2024-01-25T12:18:00;43.47;;;11.07;;
21128;SDS011;10722;51.910;8.352;2024-01-25T12:20:46;55.37;;;12.20;;
21128;SDS011;10722;51.910;8.352;2024-01-25T12:23:35;49.83;;;12.23;;
21128;SDS011;10722;51.910;8.352;2024-01-25T12:26:21;53.20;;;11.73;;
21128;SDS011;10722;51.910;8.352;2024-01-25T12:29:05;54.63;;;13.63;;
21128;SDS011;10722;51.910;8.352;2024-01-25T12:31:50;49.03;;;13.40;;
21128;SDS011;10722;51.910;8.352;2024-01-25T12:34:35;40.47;;;10.67;;
21128;SDS011;10722;51.910;8.352;2024-01-25T12:37:22;47.97;;;11.93;;
21128;SDS011;10722;51.910;8.352;2024-01-25T12:40:08;52.80;;;12.70;;
21128;SDS011;10722;51.910;8.352;2024-01-25T12:42:53;56.60;;;11.77;;
21128;SDS011;10722;51.910;8.352;2024-01-25T12:45:38;53.33;;;12.40;;
21128;SDS011;10722;51.910;8.352;2024-01-25T12:48:23;55.43;;;11.07;;
21128;SDS011;10722;51.910;8.352;2024-01-25T12:51:09;59.73;;;11.43;;
21128;SDS011;10722;51.910;8.352;2024-01-25T12:53:54;43.13;;;11.80;;
21128;SDS011;10722;51.910;8.352;2024-01-25T12:56:40;44.63;;;12.60;;
21128;SDS011;10722;51.910;8.352;2024-01-25T12:59:28;47.80;;;13.47;;
21128;SDS011;10722;51.910;8.352;2024-01-25T13:02:13;42.07;;;12.87;;
21128;SDS011;10722;51.910;8.352;2024-01-25T13:04:59;49.13;;;12.87;;
21128;SDS011;10722;51.910;8.352;2024-01-25T13:07:44;49.20;;;13.77;;
21128;SDS011;10722;51.910;8.352;2024-01-25T13:10:29;50.00;;;13.47;;
21128;SDS011;10722;51.910;8.352;2024-01-25T13:13:14;52.07;;;13.73;;
21128;SDS011;10722;51.910;8.352;2024-01-25T13:16:00;52.87;;;13.93;;
21128;SDS011;10722;51.910;8.352;2024-01-25T13:18:46;60.40;;;13.60;;
21128;SDS011;10722;51.910;8.352;2024-01-25T13:21:32;59.57;;;14.37;;
21128;SDS011;10722;51.910;8.352;2024-01-25T13:24:18;52.13;;;14.83;;
21128;SDS011;10722;51.910;8.352;2024-01-25T13:27:03;50.27;;;14.27;;
21128;SDS011;10722;51.910;8.352;2024-01-25T13:29:48;52.00;;;15.10;;
21128;SDS011;10722;51.910;8.352;2024-01-25T13:32:33;52.63;;;15.50;;
21128;SDS011;10722;51.910;8.352;2024-01-25T13:35:18;55.47;;;14.93;;
21128;SDS011;10722;51.910;8.352;2024-01-25T13:38:04;56.33;;;15.80;;
21128;SDS011;10722;51.910;8.352;2024-01-25T13:40:49;53.33;;;15.47;;
21128;SDS011;10722;51.910;8.352;2024-01-25T13:43:35;59.73;;;18.37;;
21128;SDS011;10722;51.910;8.352;2024-01-25T13:46:20;58.67;;;17.43;;
21128;SDS011;10722;51.910;8.352;2024-01-25T13:49:08;53.13;;;16.70;;
21128;SDS011;10722;51.910;8.352;2024-01-25T13:51:54;58.90;;;18.47;;
21128;SDS011;10722;51.910;8.352;2024-01-25T13:54:40;52.47;;;17.10;;
21128;SDS011;10722;51.910;8.352;2024-01-25T13:57:25;58.77;;;17.47;;
21128;SDS011;10722;51.910;8.352;2024-01-25T14:00:10;59.80;;;17.60;;
21128;SDS011;10722;51.910;8.352;2024-01-25T14:02:55;54.93;;;16.10;;
21128;SDS011;10722;51.910;8.352;2024-01-25T14:05:40;58.73;;;14.97;;
21128;SDS011;10722;51.910;8.352;2024-01-25T14:08:26;56.30;;;15.03;;
21128;SDS011;10722;51.910;8.352;2024-01-25T14:11:11;49.50;;;13.77;;
21128;SDS011;10722;51.910;8.352;2024-01-25T14:13:56;52.50;;;14.00;;
21128;SDS011;10722;51.910;8.352;2024-01-25T14:16:41;54.50;;;14.73;;
21128;SDS011;10722;51.910;8.352;2024-01-25T14:19:26;49.67;;;13.33;;
21128;SDS011;10722;51.910;8.352;2024-01-25T14:22:12;59.23;;;13.80;;
21128;SDS011;10722;51.910;8.352;2024-01-25T14:25:13;47.80;;;14.40;;
21128;SDS011;10722;51.910;8.352;2024-01-25T14:27:58;54.33;;;12.30;;
21128;SDS011;10722;51.910;8.352;2024-01-25T14:30:44;42.90;;;12.10;;
21128;SDS011;10722;51.910;8.352;2024-01-25T14:33:29;46.27;;;12.20;;
21128;SDS011;10722;51.910;8.352;2024-01-25T14:36:14;58.57;;;12.87;;
21128;SDS011;10722;51.910;8.352;2024-01-25T14:38:59;54.23;;;13.10;;
21128;SDS011;10722;51.910;8.352;2024-01-25T14:41:44;42.30;;;10.33;;
21128;SDS011;10722;51.910;8.352;2024-01-25T14:44:30;39.73;;;10.87;;
21128;SDS011;10722;51.910;8.352;2024-01-25T14:47:15;48.87;;;10.40;;
21128;SDS011;10722;51.910;8.352;2024-01-25T14:50:00;46.53;;;10.53;;
21128;SDS011;10722;51.910;8.352;2024-01-25T14:52:45;53.80;;;11.07;;
21128;SDS011;10722;51.910;8.352;2024-01-25T14:55:30;52.07;;;9.97;;
21128;SDS011;10722;51.910;8.352;2024-01-25T14:58:16;47.50;;;10.13;;
21128;SDS011;10722;51.910;8.352;2024-01-25T15:01:02;51.63;;;10.40;;
21128;SDS011;10722;51.910;8.352;2024-01-25T15:03:48;41.77;;;9.93;;
21128;SDS011;10722;51.910;8.352;2024-01-25T15:06:33;45.37;;;10.47;;
21128;SDS011;10722;51.910;8.352;2024-01-25T15:09:18;42.83;;;9.77;;
21128;SDS011;10722;51.910;8.352;2024-01-25T15:12:03;45.17;;;9.57;;
21128;SDS011;10722;51.910;8.352;2024-01-25T15:14:48;50.17;;;10.50;;
21128;SDS011;10722;51.910;8.352;2024-01-25T15:17:34;39.53;;;10.07;;
21128;SDS011;10722;51.910;8.352;2024-01-25T15:20:20;38.63;;;9.83;;
21128;SDS011;10722;51.910;8.352;2024-01-25T15:23:05;41.13;;;9.43;;
21128;SDS011;10722;51.910;8.352;2024-01-25T15:25:51;43.00;;;11.07;;
21128;SDS011;10722;51.910;8.352;2024-01-25T15:28:36;46.13;;;10.97;;
21128;SDS011;10722;51.910;8.352;2024-01-25T15:31:21;44.97;;;10.77;;
21128;SDS011;10722;51.910;8.352;2024-01-25T15:34:06;42.40;;;11.13;;
21128;SDS011;10722;51.910;8.352;2024-01-25T15:36:51;46.00;;;10.90;;
21128;SDS011;10722;51.910;8.352;2024-01-25T15:39:37;48.33;;;10.57;;
21128;SDS011;10722;51.910;8.352;2024-01-25T15:42:22;35.90;;;9.80;;
21128;SDS011;10722;51.910;8.352;2024-01-25T15:45:07;51.37;;;11.33;;
21128;SDS011;10722;51.910;8.352;2024-01-25T15:47:52;48.53;;;11.03;;
21128;SDS011;10722;51.910;8.352;2024-01-25T15:50:37;44.67;;;11.17;;
21128;SDS011;10722;51.910;8.352;2024-01-25T15:53:22;51.53;;;11.83;;
21128;SDS011;10722;51.910;8.352;2024-01-25T15:56:07;43.90;;;10.50;;
21128;SDS011;10722;51.910;8.352;2024-01-25T15:58:52;41.90;;;11.30;;
21128;SDS011;10722;51.910;8.352;2024-01-25T16:01:37;44.10;;;12.00;;
21128;SDS011;10722;51.910;8.352;2024-01-25T16:04:22;35.80;;;10.07;;
21128;SDS011;10722;51.910;8.352;2024-01-25T16:07:08;44.47;;;11.03;;
21128;SDS011;10722;51.910;8.352;2024-01-25T16:09:53;45.93;;;11.23;;
21128;SDS011;10722;51.910;8.352;2024-01-25T16:12:38;47.23;;;12.93;;
21128;SDS011;10722;51.910;8.352;2024-01-25T16:15:23;51.53;;;14.03;;
21128;SDS011;10722;51.910;8.352;2024-01-25T16:18:08;51.43;;;13.87;;